sensor_id;sensor_type;location;lat;lon;timestamp;temperature;humidity
4509;DHT22;2267;48.816;9.230;2022-12-07T00:01:21;6.50;99.90
4509;DHT22;2267;48.816;9.230;2022-12-07T00:03:50;6.50;99.90
4509;DHT22;2267;48.816;9.230;2022-12-07T00:06:18;6.50;99.90
4509;DHT22;2267;48.816;9.230;2022-12-07T00:08:46;6.50;99.90
4509;DHT22;2267;48.816;9.230;2022-12-07T00:11:16;6.50;99.90
4509;DHT22;2267;48.816;9.230;2022-12-07T00:13:43;6.50;99.90
4509;DHT22;2267;48.816;9.230;2022-12-07T00:18:39;6.50;99.90
4509;DHT22;2267;48.816;9.230;2022-12-07T00:23:38;6.50;99.90
4509;DHT22;2267;48.816;9.230;2022-12-07T00:26:09;6.50;99.90
4509;DHT22;2267;48.816;9.230;2022-12-07T00:28:36;6.50;99.90
4509;DHT22;2267;48.816;9.230;2022-12-07T00:31:09;6.50;99.90
4509;DHT22;2267;48.816;9.230;2022-12-07T00:33:36;6.50;99.90
4509;DHT22;2267;48.816;9.230;2022-12-07T00:36:10;6.50;99.90
4509;DHT22;2267;48.816;9.230;2022-12-07T00:38:38;6.50;99.90
4509;DHT22;2267;48.816;9.230;2022-12-07T00:41:09;6.40;99.90
4509;DHT22;2267;48.816;9.230;2022-12-07T00:43:37;6.40;99.90
4509;DHT22;2267;48.816;9.230;2022-12-07T00:46:04;6.40;99.90
4509;DHT22;2267;48.816;9.230;2022-12-07T00:48:31;6.50;99.90
4509;DHT22;2267;48.816;9.230;2022-12-07T00:50:58;6.40;99.90
4509;DHT22;2267;48.816;9.230;2022-12-07T00:53:26;6.50;99.90
4509;DHT22;2267;48.816;9.230;2022-12-07T00:55:53;6.40;99.90
4509;DHT22;2267;48.816;9.230;2022-12-07T00:58:20;6.40;99.90
4509;DHT22;2267;48.816;9.230;2022-12-07T01:00:46;6.40;99.90
4509;DHT22;2267;48.816;9.230;2022-12-07T01:03:17;6.40;99.90
4509;DHT22;2267;48.816;9.230;2022-12-07T01:05:52;6.40;99.90
4509;DHT22;2267;48.816;9.230;2022-12-07T01:08:20;6.40;99.90
4509;DHT22;2267;48.816;9.230;2022-12-07T01:10:47;6.40;99.90
4509;DHT22;2267;48.816;9.230;2022-12-07T01:13:15;6.40;99.90
4509;DHT22;2267;48.816;9.230;2022-12-07T01:15:43;6.40;99.90
4509;DHT22;2267;48.816;9.230;2022-12-07T01:18:11;6.40;99.90
4509;DHT22;2267;48.816;9.230;2022-12-07T01:20:38;6.40;99.90
4509;DHT22;2267;48.816;9.230;2022-12-07T01:23:04;6.40;99.90
4509;DHT22;2267;48.816;9.230;2022-12-07T01:25:32;6.40;99.90
4509;DHT22;2267;48.816;9.230;2022-12-07T01:27:58;6.40;99.90
4509;DHT22;2267;48.816;9.230;2022-12-07T01:30:25;6.40;99.90
4509;DHT22;2267;48.816;9.230;2022-12-07T01:32:52;6.30;99.90
4509;DHT22;2267;48.816;9.230;2022-12-07T01:35:19;6.40;99.90
4509;DHT22;2267;48.816;9.230;2022-12-07T01:37:45;6.30;99.90
4509;DHT22;2267;48.816;9.230;2022-12-07T01:40:12;6.30;99.90
4509;DHT22;2267;48.816;9.230;2022-12-07T01:42:39;6.30;99.90
4509;DHT22;2267;48.816;9.230;2022-12-07T01:47:49;6.30;99.90
4509;DHT22;2267;48.816;9.230;2022-12-07T01:50:18;6.30;99.90
4509;DHT22;2267;48.816;9.230;2022-12-07T01:52:46;6.30;99.90
4509;DHT22;2267;48.816;9.230;2022-12-07T01:55:15;6.30;99.90
4509;DHT22;2267;48.816;9.230;2022-12-07T01:57:46;6.30;99.90
4509;DHT22;2267;48.816;9.230;2022-12-07T02:00:14;6.30;99.90
4509;DHT22;2267;48.816;9.230;2022-12-07T02:05:10;6.30;99.90
4509;DHT22;2267;48.816;9.230;2022-12-07T02:07:38;6.20;99.90
4509;DHT22;2267;48.816;9.230;2022-12-07T02:10:17;6.20;99.90
4509;DHT22;2267;48.816;9.230;2022-12-07T02:12:48;6.20;99.90
4509;DHT22;2267;48.816;9.230;2022-12-07T02:15:17;6.20;99.90
4509;DHT22;2267;48.816;9.230;2022-12-07T02:17:55;6.20;99.90
4509;DHT22;2267;48.816;9.230;2022-12-07T02:20:39;6.20;99.90
4509;DHT22;2267;48.816;9.230;2022-12-07T02:26:19;6.20;99.90
4509;DHT22;2267;48.816;9.230;2022-12-07T02:29:44;6.20;99.90
4509;DHT22;2267;48.816;9.230;2022-12-07T02:32:16;6.20;99.90
4509;DHT22;2267;48.816;9.230;2022-12-07T02:34:49;6.20;99.90
4509;DHT22;2267;48.816;9.230;2022-12-07T02:40:20;6.20;99.90
4509;DHT22;2267;48.816;9.230;2022-12-07T02:43:00;6.20;99.90
4509;DHT22;2267;48.816;9.230;2022-12-07T02:45:29;6.20;99.90
4509;DHT22;2267;48.816;9.230;2022-12-07T02:47:59;6.20;99.90
4509;DHT22;2267;48.816;9.230;2022-12-07T02:50:27;6.20;99.90
4509;DHT22;2267;48.816;9.230;2022-12-07T02:52:54;6.20;99.90
4509;DHT22;2267;48.816;9.230;2022-12-07T02:55:27;6.20;99.90
4509;DHT22;2267;48.816;9.230;2022-12-07T02:58:32;6.20;99.90
4509;DHT22;2267;48.816;9.230;2022-12-07T03:01:36;6.20;99.90
4509;DHT22;2267;48.816;9.230;2022-12-07T03:07:01;6.10;99.90
4509;DHT22;2267;48.816;9.230;2022-12-07T03:09:59;6.10;99.90
4509;DHT22;2267;48.816;9.230;2022-12-07T03:12:59;6.10;99.90
4509;DHT22;2267;48.816;9.230;2022-12-07T03:15:35;6.10;99.90
4509;DHT22;2267;48.816;9.230;2022-12-07T03:18:07;6.10;99.90
4509;DHT22;2267;48.816;9.230;2022-12-07T03:20:37;6.10;99.90
4509;DHT22;2267;48.816;9.230;2022-12-07T03:23:06;6.10;99.90
4509;DHT22;2267;48.816;9.230;2022-12-07T03:25:41;6.10;99.90
4509;DHT22;2267;48.816;9.230;2022-12-07T03:28:10;6.10;99.90
4509;DHT22;2267;48.816;9.230;2022-12-07T03:33:14;6.10;99.90
4509;DHT22;2267;48.816;9.230;2022-12-07T03:35:49;6.10;99.90
4509;DHT22;2267;48.816;9.230;2022-12-07T03:38:19;6.10;99.90
4509;DHT22;2267;48.816;9.230;2022-12-07T03:40:54;6.10;99.90
4509;DHT22;2267;48.816;9.230;2022-12-07T03:43:21;6.10;99.90
4509;DHT22;2267;48.816;9.230;2022-12-07T03:48:34;6.10;99.90
4509;DHT22;2267;48.816;9.230;2022-12-07T03:51:25;6.00;99.90
4509;DHT22;2267;48.816;9.230;2022-12-07T03:54:07;6.10;99.90
4509;DHT22;2267;48.816;9.230;2022-12-07T03:56:36;6.00;99.90
4509;DHT22;2267;48.816;9.230;2022-12-07T03:59:04;6.00;99.90
4509;DHT22;2267;48.816;9.230;2022-12-07T04:01:31;6.10;99.90
4509;DHT22;2267;48.816;9.230;2022-12-07T04:03:58;6.10;99.90
4509;DHT22;2267;48.816;9.230;2022-12-07T04:06:25;6.00;99.90
4509;DHT22;2267;48.816;9.230;2022-12-07T04:08:52;6.00;99.90
4509;DHT22;2267;48.816;9.230;2022-12-07T04:11:18;6.00;99.90
4509;DHT22;2267;48.816;9.230;2022-12-07T04:13:45;6.00;99.90
4509;DHT22;2267;48.816;9.230;2022-12-07T04:16:31;6.00;99.90
4509;DHT22;2267;48.816;9.230;2022-12-07T04:18:57;6.00;99.90
4509;DHT22;2267;48.816;9.230;2022-12-07T04:21:24;5.90;99.90
4509;DHT22;2267;48.816;9.230;2022-12-07T04:23:51;5.90;99.90
4509;DHT22;2267;48.816;9.230;2022-12-07T04:26:18;5.90;99.90
4509;DHT22;2267;48.816;9.230;2022-12-07T04:28:44;5.90;99.90
4509;DHT22;2267;48.816;9.230;2022-12-07T04:31:11;5.80;99.90
4509;DHT22;2267;48.816;9.230;2022-12-07T04:33:38;5.80;99.90
4509;DHT22;2267;48.816;9.230;2022-12-07T04:36:05;5.80;99.90
4509;DHT22;2267;48.816;9.230;2022-12-07T04:38:32;5.80;99.90
4509;DHT22;2267;48.816;9.230;2022-12-07T04:41:05;5.80;99.90
4509;DHT22;2267;48.816;9.230;2022-12-07T04:43:33;5.70;99.90
4509;DHT22;2267;48.816;9.230;2022-12-07T04:46:00;5.80;99.90
4509;DHT22;2267;48.816;9.230;2022-12-07T04:48:27;5.70;99.90
4509;DHT22;2267;48.816;9.230;2022-12-07T04:50:54;5.70;99.90
4509;DHT22;2267;48.816;9.230;2022-12-07T04:53:21;5.70;99.90
4509;DHT22;2267;48.816;9.230;2022-12-07T04:55:48;5.70;99.90
4509;DHT22;2267;48.816;9.230;2022-12-07T04:58:15;5.70;99.90
4509;DHT22;2267;48.816;9.230;2022-12-07T05:00:41;5.70;99.90
4509;DHT22;2267;48.816;9.230;2022-12-07T05:03:08;5.60;99.90
4509;DHT22;2267;48.816;9.230;2022-12-07T05:05:35;5.60;99.90
4509;DHT22;2267;48.816;9.230;2022-12-07T05:08:02;5.70;99.90
4509;DHT22;2267;48.816;9.230;2022-12-07T05:10:28;5.70;99.90
4509;DHT22;2267;48.816;9.230;2022-12-07T05:12:55;5.70;99.90
4509;DHT22;2267;48.816;9.230;2022-12-07T05:15:22;5.70;99.90
4509;DHT22;2267;48.816;9.230;2022-12-07T05:17:49;5.70;99.90
4509;DHT22;2267;48.816;9.230;2022-12-07T05:20:16;5.70;99.90
4509;DHT22;2267;48.816;9.230;2022-12-07T05:22:42;5.70;99.90
4509;DHT22;2267;48.816;9.230;2022-12-07T05:25:09;5.70;99.90
4509;DHT22;2267;48.816;9.230;2022-12-07T05:27:36;5.70;99.90
4509;DHT22;2267;48.816;9.230;2022-12-07T05:30:04;5.70;99.90
4509;DHT22;2267;48.816;9.230;2022-12-07T05:32:31;5.70;99.90
4509;DHT22;2267;48.816;9.230;2022-12-07T05:34:58;5.70;99.90
4509;DHT22;2267;48.816;9.230;2022-12-07T05:37:25;5.70;99.90
4509;DHT22;2267;48.816;9.230;2022-12-07T05:39:51;5.70;99.90
4509;DHT22;2267;48.816;9.230;2022-12-07T05:42:18;5.70;99.90
4509;DHT22;2267;48.816;9.230;2022-12-07T05:44:46;5.60;99.90
4509;DHT22;2267;48.816;9.230;2022-12-07T05:47:13;5.60;99.90
4509;DHT22;2267;48.816;9.230;2022-12-07T05:49:40;5.60;99.90
4509;DHT22;2267;48.816;9.230;2022-12-07T05:52:08;5.60;99.90
4509;DHT22;2267;48.816;9.230;2022-12-07T05:54:34;5.60;99.90
4509;DHT22;2267;48.816;9.230;2022-12-07T05:57:01;5.50;99.90
4509;DHT22;2267;48.816;9.230;2022-12-07T05:59:28;5.50;99.90
4509;DHT22;2267;48.816;9.230;2022-12-07T06:02:01;5.50;99.90
4509;DHT22;2267;48.816;9.230;2022-12-07T06:04:32;5.50;99.90
4509;DHT22;2267;48.816;9.230;2022-12-07T06:06:59;5.50;99.90
4509;DHT22;2267;48.816;9.230;2022-12-07T06:09:27;5.50;99.90
4509;DHT22;2267;48.816;9.230;2022-12-07T06:11:54;5.50;99.90
4509;DHT22;2267;48.816;9.230;2022-12-07T06:15:00;5.50;99.90
4509;DHT22;2267;48.816;9.230;2022-12-07T06:17:27;5.50;99.90
4509;DHT22;2267;48.816;9.230;2022-12-07T06:19:54;5.50;99.90
4509;DHT22;2267;48.816;9.230;2022-12-07T06:22:21;5.50;99.90
4509;DHT22;2267;48.816;9.230;2022-12-07T06:24:48;5.40;99.90
4509;DHT22;2267;48.816;9.230;2022-12-07T06:27:15;5.40;99.90
4509;DHT22;2267;48.816;9.230;2022-12-07T06:29:41;5.40;99.90
4509;DHT22;2267;48.816;9.230;2022-12-07T06:32:08;5.40;99.90
4509;DHT22;2267;48.816;9.230;2022-12-07T06:34:35;5.40;99.90
4509;DHT22;2267;48.816;9.230;2022-12-07T06:37:02;5.40;99.90
4509;DHT22;2267;48.816;9.230;2022-12-07T06:39:30;5.50;99.90
4509;DHT22;2267;48.816;9.230;2022-12-07T06:41:57;5.40;99.90
4509;DHT22;2267;48.816;9.230;2022-12-07T06:44:24;5.50;99.90
4509;DHT22;2267;48.816;9.230;2022-12-07T06:46:52;5.50;99.90
4509;DHT22;2267;48.816;9.230;2022-12-07T06:49:38;5.50;99.90
4509;DHT22;2267;48.816;9.230;2022-12-07T06:52:05;5.50;99.90
4509;DHT22;2267;48.816;9.230;2022-12-07T06:54:32;5.50;99.90
4509;DHT22;2267;48.816;9.230;2022-12-07T06:56:58;5.50;99.90
4509;DHT22;2267;48.816;9.230;2022-12-07T06:59:26;5.50;99.90
4509;DHT22;2267;48.816;9.230;2022-12-07T07:01:53;5.50;99.90
4509;DHT22;2267;48.816;9.230;2022-12-07T07:04:19;5.50;99.90
4509;DHT22;2267;48.816;9.230;2022-12-07T07:06:46;5.50;99.90
4509;DHT22;2267;48.816;9.230;2022-12-07T07:09:13;5.50;99.90
4509;DHT22;2267;48.816;9.230;2022-12-07T07:11:40;5.50;99.90
4509;DHT22;2267;48.816;9.230;2022-12-07T07:14:07;5.50;99.90
4509;DHT22;2267;48.816;9.230;2022-12-07T07:16:34;5.50;99.90
4509;DHT22;2267;48.816;9.230;2022-12-07T07:19:00;5.50;99.90
4509;DHT22;2267;48.816;9.230;2022-12-07T07:21:27;5.40;99.90
4509;DHT22;2267;48.816;9.230;2022-12-07T07:23:54;5.50;99.90
4509;DHT22;2267;48.816;9.230;2022-12-07T07:26:21;5.40;99.90
4509;DHT22;2267;48.816;9.230;2022-12-07T07:28:49;5.50;99.90
4509;DHT22;2267;48.816;9.230;2022-12-07T07:31:15;5.50;99.90
4509;DHT22;2267;48.816;9.230;2022-12-07T07:33:42;5.50;99.90
4509;DHT22;2267;48.816;9.230;2022-12-07T07:36:09;5.50;99.90
4509;DHT22;2267;48.816;9.230;2022-12-07T07:38:36;5.50;99.90
4509;DHT22;2267;48.816;9.230;2022-12-07T07:41:03;5.50;99.90
4509;DHT22;2267;48.816;9.230;2022-12-07T07:43:29;5.50;99.90
4509;DHT22;2267;48.816;9.230;2022-12-07T07:45:56;5.60;99.90
4509;DHT22;2267;48.816;9.230;2022-12-07T07:48:23;5.60;99.90
4509;DHT22;2267;48.816;9.230;2022-12-07T07:50:51;5.60;99.90
4509;DHT22;2267;48.816;9.230;2022-12-07T07:53:18;5.60;99.90
4509;DHT22;2267;48.816;9.230;2022-12-07T07:55:52;5.60;99.90
4509;DHT22;2267;48.816;9.230;2022-12-07T07:58:21;5.60;99.90
4509;DHT22;2267;48.816;9.230;2022-12-07T08:00:48;5.60;99.90
4509;DHT22;2267;48.816;9.230;2022-12-07T08:03:15;5.60;99.90
4509;DHT22;2267;48.816;9.230;2022-12-07T08:05:42;5.60;99.90
4509;DHT22;2267;48.816;9.230;2022-12-07T08:08:09;5.70;99.90
4509;DHT22;2267;48.816;9.230;2022-12-07T08:10:36;5.70;99.90
4509;DHT22;2267;48.816;9.230;2022-12-07T08:13:03;5.70;99.90
4509;DHT22;2267;48.816;9.230;2022-12-07T08:15:46;5.70;99.90
4509;DHT22;2267;48.816;9.230;2022-12-07T08:18:15;5.70;99.90
4509;DHT22;2267;48.816;9.230;2022-12-07T08:20:42;5.80;99.90
4509;DHT22;2267;48.816;9.230;2022-12-07T08:23:10;5.80;99.90
4509;DHT22;2267;48.816;9.230;2022-12-07T08:25:36;5.80;99.90
4509;DHT22;2267;48.816;9.230;2022-12-07T08:28:04;5.80;99.90
4509;DHT22;2267;48.816;9.230;2022-12-07T08:30:31;5.80;99.90
4509;DHT22;2267;48.816;9.230;2022-12-07T08:32:58;5.80;99.90
4509;DHT22;2267;48.816;9.230;2022-12-07T08:35:25;5.90;99.90
4509;DHT22;2267;48.816;9.230;2022-12-07T08:37:52;5.90;99.90
4509;DHT22;2267;48.816;9.230;2022-12-07T08:40:19;5.90;99.90
4509;DHT22;2267;48.816;9.230;2022-12-07T08:42:50;5.90;99.90
4509;DHT22;2267;48.816;9.230;2022-12-07T08:45:19;6.00;99.90
4509;DHT22;2267;48.816;9.230;2022-12-07T08:48:03;6.00;99.90
4509;DHT22;2267;48.816;9.230;2022-12-07T08:50:33;6.00;99.90
4509;DHT22;2267;48.816;9.230;2022-12-07T08:53:00;6.00;99.90
4509;DHT22;2267;48.816;9.230;2022-12-07T08:55:28;6.00;99.90
4509;DHT22;2267;48.816;9.230;2022-12-07T08:57:57;6.00;99.90
4509;DHT22;2267;48.816;9.230;2022-12-07T09:00:26;6.10;99.90
4509;DHT22;2267;48.816;9.230;2022-12-07T09:02:53;6.10;99.90
4509;DHT22;2267;48.816;9.230;2022-12-07T09:05:21;6.10;99.90
4509;DHT22;2267;48.816;9.230;2022-12-07T09:07:51;6.10;99.90
4509;DHT22;2267;48.816;9.230;2022-12-07T09:10:18;6.10;99.90
4509;DHT22;2267;48.816;9.230;2022-12-07T09:12:45;6.10;99.90
4509;DHT22;2267;48.816;9.230;2022-12-07T09:15:12;6.10;99.90
4509;DHT22;2267;48.816;9.230;2022-12-07T09:17:39;6.20;99.90
4509;DHT22;2267;48.816;9.230;2022-12-07T09:20:06;6.20;99.90
4509;DHT22;2267;48.816;9.230;2022-12-07T09:22:33;6.20;99.90
4509;DHT22;2267;48.816;9.230;2022-12-07T09:25:01;6.30;99.90
4509;DHT22;2267;48.816;9.230;2022-12-07T09:27:28;6.30;99.90
4509;DHT22;2267;48.816;9.230;2022-12-07T09:29:54;6.30;99.90
4509;DHT22;2267;48.816;9.230;2022-12-07T09:32:22;6.40;99.90
4509;DHT22;2267;48.816;9.230;2022-12-07T09:34:49;6.40;99.90
4509;DHT22;2267;48.816;9.230;2022-12-07T09:37:16;6.40;99.90
4509;DHT22;2267;48.816;9.230;2022-12-07T09:39:43;6.50;99.90
4509;DHT22;2267;48.816;9.230;2022-12-07T09:42:34;6.50;99.90
4509;DHT22;2267;48.816;9.230;2022-12-07T09:45:05;6.60;99.90
4509;DHT22;2267;48.816;9.230;2022-12-07T09:47:32;6.60;99.90
4509;DHT22;2267;48.816;9.230;2022-12-07T09:50:05;6.60;99.90
4509;DHT22;2267;48.816;9.230;2022-12-07T09:52:34;6.60;99.90
4509;DHT22;2267;48.816;9.230;2022-12-07T09:55:12;6.70;99.90
4509;DHT22;2267;48.816;9.230;2022-12-07T09:57:40;6.70;99.90
4509;DHT22;2267;48.816;9.230;2022-12-07T10:00:13;6.70;99.90
4509;DHT22;2267;48.816;9.230;2022-12-07T10:03:04;6.70;99.90
4509;DHT22;2267;48.816;9.230;2022-12-07T10:05:37;6.80;99.90
4509;DHT22;2267;48.816;9.230;2022-12-07T10:08:05;6.80;99.90
4509;DHT22;2267;48.816;9.230;2022-12-07T10:10:34;6.80;99.90
4509;DHT22;2267;48.816;9.230;2022-12-07T10:13:18;6.80;99.90
4509;DHT22;2267;48.816;9.230;2022-12-07T10:18:26;6.80;99.90
4509;DHT22;2267;48.816;9.230;2022-12-07T10:21:03;6.80;99.90
4509;DHT22;2267;48.816;9.230;2022-12-07T10:23:30;6.70;99.90
4509;DHT22;2267;48.816;9.230;2022-12-07T10:25:57;6.70;99.90
4509;DHT22;2267;48.816;9.230;2022-12-07T10:28:34;6.70;99.90
4509;DHT22;2267;48.816;9.230;2022-12-07T10:31:19;6.80;99.90
4509;DHT22;2267;48.816;9.230;2022-12-07T10:33:59;6.70;99.90
4509;DHT22;2267;48.816;9.230;2022-12-07T10:36:35;6.80;99.90
4509;DHT22;2267;48.816;9.230;2022-12-07T10:39:15;6.80;99.90
4509;DHT22;2267;48.816;9.230;2022-12-07T10:42:03;6.80;99.90
4509;DHT22;2267;48.816;9.230;2022-12-07T10:44:34;6.80;99.90
4509;DHT22;2267;48.816;9.230;2022-12-07T11:07:22;6.70;99.90
4509;DHT22;2267;48.816;9.230;2022-12-07T11:18:26;6.80;99.90
4509;DHT22;2267;48.816;9.230;2022-12-07T11:37:34;6.80;99.90
4509;DHT22;2267;48.816;9.230;2022-12-07T11:40:33;6.70;99.90
4509;DHT22;2267;48.816;9.230;2022-12-07T11:45:39;6.80;99.90
4509;DHT22;2267;48.816;9.230;2022-12-07T11:48:32;6.80;99.90
4509;DHT22;2267;48.816;9.230;2022-12-07T11:51:01;6.80;99.90
4509;DHT22;2267;48.816;9.230;2022-12-07T11:56:11;6.80;99.90
4509;DHT22;2267;48.816;9.230;2022-12-07T12:01:26;6.80;99.90
4509;DHT22;2267;48.816;9.230;2022-12-07T12:06:33;6.70;99.90
4509;DHT22;2267;48.816;9.230;2022-12-07T12:09:14;6.70;99.90
4509;DHT22;2267;48.816;9.230;2022-12-07T12:23:21;6.70;99.90
4509;DHT22;2267;48.816;9.230;2022-12-07T12:25:55;6.70;99.90
4509;DHT22;2267;48.816;9.230;2022-12-07T12:31:15;6.70;99.90
4509;DHT22;2267;48.816;9.230;2022-12-07T12:33:55;6.70;99.90
4509;DHT22;2267;48.816;9.230;2022-12-07T12:46:54;6.70;99.90
4509;DHT22;2267;48.816;9.230;2022-12-07T12:51:53;6.70;99.90
4509;DHT22;2267;48.816;9.230;2022-12-07T12:57:20;6.60;99.90
4509;DHT22;2267;48.816;9.230;2022-12-07T13:15:40;6.60;99.90
4509;DHT22;2267;48.816;9.230;2022-12-07T13:20:56;6.60;99.90
4509;DHT22;2267;48.816;9.230;2022-12-07T13:26:09;6.60;99.90
4509;DHT22;2267;48.816;9.230;2022-12-07T13:36:53;6.70;99.90
4509;DHT22;2267;48.816;9.230;2022-12-07T13:39:23;6.70;99.90
4509;DHT22;2267;48.816;9.230;2022-12-07T13:41:55;6.70;99.90
4509;DHT22;2267;48.816;9.230;2022-12-07T13:44:25;6.70;99.90
4509;DHT22;2267;48.816;9.230;2022-12-07T13:47:00;6.70;99.90
4509;DHT22;2267;48.816;9.230;2022-12-07T13:49:31;6.80;99.90
4509;DHT22;2267;48.816;9.230;2022-12-07T13:54:49;6.70;99.90
4509;DHT22;2267;48.816;9.230;2022-12-07T13:57:22;6.70;99.90
4509;DHT22;2267;48.816;9.230;2022-12-07T13:59:51;6.70;99.90
4509;DHT22;2267;48.816;9.230;2022-12-07T14:02:30;6.70;99.90
4509;DHT22;2267;48.816;9.230;2022-12-07T14:05:24;6.70;99.90
4509;DHT22;2267;48.816;9.230;2022-12-07T14:07:59;6.70;99.90
4509;DHT22;2267;48.816;9.230;2022-12-07T14:12:59;6.70;99.90
4509;DHT22;2267;48.816;9.230;2022-12-07T14:15:29;6.70;99.90
4509;DHT22;2267;48.816;9.230;2022-12-07T14:17:58;6.70;99.90
4509;DHT22;2267;48.816;9.230;2022-12-07T14:23:00;6.70;99.90
4509;DHT22;2267;48.816;9.230;2022-12-07T14:25:46;6.70;99.90
4509;DHT22;2267;48.816;9.230;2022-12-07T14:28:36;6.80;99.90
4509;DHT22;2267;48.816;9.230;2022-12-07T14:31:04;6.80;99.90
4509;DHT22;2267;48.816;9.230;2022-12-07T14:33:34;6.80;99.90
4509;DHT22;2267;48.816;9.230;2022-12-07T14:38:28;6.80;99.90
4509;DHT22;2267;48.816;9.230;2022-12-07T14:40:56;6.80;99.90
4509;DHT22;2267;48.816;9.230;2022-12-07T14:43:46;6.80;99.90
4509;DHT22;2267;48.816;9.230;2022-12-07T14:46:33;6.80;99.90
4509;DHT22;2267;48.816;9.230;2022-12-07T14:49:00;6.80;99.90
4509;DHT22;2267;48.816;9.230;2022-12-07T14:51:47;6.80;99.90
4509;DHT22;2267;48.816;9.230;2022-12-07T14:54:34;6.80;99.90
4509;DHT22;2267;48.816;9.230;2022-12-07T14:57:01;6.70;99.90
4509;DHT22;2267;48.816;9.230;2022-12-07T14:59:27;6.70;99.90
4509;DHT22;2267;48.816;9.230;2022-12-07T15:01:54;6.70;99.90
4509;DHT22;2267;48.816;9.230;2022-12-07T15:04:21;6.70;99.90
4509;DHT22;2267;48.816;9.230;2022-12-07T15:06:56;6.70;99.90
4509;DHT22;2267;48.816;9.230;2022-12-07T15:09:23;6.70;99.90
4509;DHT22;2267;48.816;9.230;2022-12-07T15:11:50;6.60;99.90
4509;DHT22;2267;48.816;9.230;2022-12-07T15:14:16;6.60;99.90
4509;DHT22;2267;48.816;9.230;2022-12-07T15:16:43;6.60;99.90
4509;DHT22;2267;48.816;9.230;2022-12-07T15:19:30;6.60;99.90
4509;DHT22;2267;48.816;9.230;2022-12-07T15:21:57;6.60;99.90
4509;DHT22;2267;48.816;9.230;2022-12-07T15:24:26;6.60;99.90
4509;DHT22;2267;48.816;9.230;2022-12-07T15:26:53;6.60;99.90
4509;DHT22;2267;48.816;9.230;2022-12-07T15:29:20;6.60;99.90
4509;DHT22;2267;48.816;9.230;2022-12-07T15:31:52;6.60;99.90
4509;DHT22;2267;48.816;9.230;2022-12-07T15:34:26;6.60;99.90
4509;DHT22;2267;48.816;9.230;2022-12-07T15:37:04;6.60;99.90
4509;DHT22;2267;48.816;9.230;2022-12-07T15:39:31;6.60;99.90
4509;DHT22;2267;48.816;9.230;2022-12-07T15:41:58;6.50;99.90
4509;DHT22;2267;48.816;9.230;2022-12-07T15:44:25;6.50;99.90
4509;DHT22;2267;48.816;9.230;2022-12-07T15:47:10;6.50;99.90
4509;DHT22;2267;48.816;9.230;2022-12-07T15:49:40;6.50;99.90
4509;DHT22;2267;48.816;9.230;2022-12-07T15:52:07;6.50;99.90
4509;DHT22;2267;48.816;9.230;2022-12-07T15:54:34;6.50;99.90
4509;DHT22;2267;48.816;9.230;2022-12-07T15:57:01;6.50;99.90
4509;DHT22;2267;48.816;9.230;2022-12-07T15:59:29;6.50;99.90
4509;DHT22;2267;48.816;9.230;2022-12-07T16:01:57;6.50;99.90
4509;DHT22;2267;48.816;9.230;2022-12-07T16:04:26;6.50;99.90
4509;DHT22;2267;48.816;9.230;2022-12-07T16:06:53;6.40;99.90
4509;DHT22;2267;48.816;9.230;2022-12-07T16:09:19;6.40;99.90
4509;DHT22;2267;48.816;9.230;2022-12-07T16:11:47;6.40;99.90
4509;DHT22;2267;48.816;9.230;2022-12-07T16:14:15;6.30;99.90
4509;DHT22;2267;48.816;9.230;2022-12-07T16:16:42;6.30;99.90
4509;DHT22;2267;48.816;9.230;2022-12-07T16:19:09;6.30;99.90
4509;DHT22;2267;48.816;9.230;2022-12-07T16:21:37;6.30;99.90
4509;DHT22;2267;48.816;9.230;2022-12-07T16:24:04;6.30;99.90
4509;DHT22;2267;48.816;9.230;2022-12-07T16:26:31;6.30;99.90
4509;DHT22;2267;48.816;9.230;2022-12-07T16:28:58;6.30;99.90
4509;DHT22;2267;48.816;9.230;2022-12-07T16:31:26;6.30;99.90
4509;DHT22;2267;48.816;9.230;2022-12-07T16:33:55;6.30;99.90
4509;DHT22;2267;48.816;9.230;2022-12-07T16:36:23;6.30;99.90
4509;DHT22;2267;48.816;9.230;2022-12-07T16:39:11;6.30;99.90
4509;DHT22;2267;48.816;9.230;2022-12-07T16:41:39;7.10;99.90
4509;DHT22;2267;48.816;9.230;2022-12-07T16:44:09;6.30;99.90
4509;DHT22;2267;48.816;9.230;2022-12-07T16:46:36;6.30;99.90
4509;DHT22;2267;48.816;9.230;2022-12-07T16:49:04;6.30;99.90
4509;DHT22;2267;48.816;9.230;2022-12-07T16:51:31;6.30;99.90
4509;DHT22;2267;48.816;9.230;2022-12-07T16:54:01;6.30;99.90
4509;DHT22;2267;48.816;9.230;2022-12-07T16:56:28;6.20;99.90
4509;DHT22;2267;48.816;9.230;2022-12-07T16:58:58;6.30;99.90
4509;DHT22;2267;48.816;9.230;2022-12-07T17:01:25;6.20;99.90
4509;DHT22;2267;48.816;9.230;2022-12-07T17:03:56;6.20;99.90
4509;DHT22;2267;48.816;9.230;2022-12-07T17:06:27;6.20;99.90
4509;DHT22;2267;48.816;9.230;2022-12-07T17:08:54;6.20;99.90
4509;DHT22;2267;48.816;9.230;2022-12-07T17:11:27;6.10;99.90
4509;DHT22;2267;48.816;9.230;2022-12-07T17:13:54;6.10;99.90
4509;DHT22;2267;48.816;9.230;2022-12-07T17:16:40;6.10;99.90
4509;DHT22;2267;48.816;9.230;2022-12-07T17:19:09;6.10;99.90
4509;DHT22;2267;48.816;9.230;2022-12-07T17:21:36;6.10;99.90
4509;DHT22;2267;48.816;9.230;2022-12-07T17:24:05;6.10;99.90
4509;DHT22;2267;48.816;9.230;2022-12-07T17:26:32;6.10;99.90
4509;DHT22;2267;48.816;9.230;2022-12-07T17:29:03;6.10;99.90
4509;DHT22;2267;48.816;9.230;2022-12-07T17:31:30;6.10;99.90
4509;DHT22;2267;48.816;9.230;2022-12-07T17:33:59;6.00;99.90
4509;DHT22;2267;48.816;9.230;2022-12-07T17:36:28;6.10;99.90
4509;DHT22;2267;48.816;9.230;2022-12-07T17:38:56;6.10;99.90
4509;DHT22;2267;48.816;9.230;2022-12-07T17:41:27;6.00;99.90
4509;DHT22;2267;48.816;9.230;2022-12-07T17:44:16;6.00;99.90
4509;DHT22;2267;48.816;9.230;2022-12-07T17:46:45;6.00;99.90
4509;DHT22;2267;48.816;9.230;2022-12-07T17:49:13;6.10;99.90
4509;DHT22;2267;48.816;9.230;2022-12-07T17:51:40;6.10;99.90
4509;DHT22;2267;48.816;9.230;2022-12-07T17:56:53;6.10;99.90
4509;DHT22;2267;48.816;9.230;2022-12-07T17:59:20;6.00;99.90
4509;DHT22;2267;48.816;9.230;2022-12-07T18:01:47;6.00;99.90
4509;DHT22;2267;48.816;9.230;2022-12-07T18:04:14;6.00;99.90
4509;DHT22;2267;48.816;9.230;2022-12-07T18:06:41;6.10;99.90
4509;DHT22;2267;48.816;9.230;2022-12-07T18:09:14;6.10;99.90
4509;DHT22;2267;48.816;9.230;2022-12-07T18:11:41;6.00;99.90
4509;DHT22;2267;48.816;9.230;2022-12-07T18:14:08;6.10;99.90
4509;DHT22;2267;48.816;9.230;2022-12-07T18:16:35;6.10;99.90
4509;DHT22;2267;48.816;9.230;2022-12-07T18:19:04;6.10;99.90
4509;DHT22;2267;48.816;9.230;2022-12-07T18:21:32;6.10;99.90
4509;DHT22;2267;48.816;9.230;2022-12-07T18:24:01;6.10;99.90
4509;DHT22;2267;48.816;9.230;2022-12-07T18:26:31;6.10;99.90
4509;DHT22;2267;48.816;9.230;2022-12-07T18:28:59;6.10;99.90
4509;DHT22;2267;48.816;9.230;2022-12-07T18:31:27;6.10;99.90
4509;DHT22;2267;48.816;9.230;2022-12-07T18:33:55;6.10;99.90
4509;DHT22;2267;48.816;9.230;2022-12-07T18:36:26;7.60;99.90
4509;DHT22;2267;48.816;9.230;2022-12-07T18:38:53;6.10;99.90
4509;DHT22;2267;48.816;9.230;2022-12-07T18:41:20;6.50;99.90
4509;DHT22;2267;48.816;9.230;2022-12-07T18:43:48;7.60;99.90
4509;DHT22;2267;48.816;9.230;2022-12-07T18:46:18;8.50;99.90
4509;DHT22;2267;48.816;9.230;2022-12-07T18:48:47;8.60;99.90
4509;DHT22;2267;48.816;9.230;2022-12-07T18:51:16;8.30;99.90
4509;DHT22;2267;48.816;9.230;2022-12-07T18:53:43;7.90;99.90
4509;DHT22;2267;48.816;9.230;2022-12-07T18:56:14;7.70;99.90
4509;DHT22;2267;48.816;9.230;2022-12-07T18:58:43;9.70;99.90
4509;DHT22;2267;48.816;9.230;2022-12-07T19:01:30;7.30;99.90
4509;DHT22;2267;48.816;9.230;2022-12-07T19:03:58;7.10;99.90
4509;DHT22;2267;48.816;9.230;2022-12-07T19:06:25;7.00;99.90
4509;DHT22;2267;48.816;9.230;2022-12-07T19:08:55;6.90;99.90
4509;DHT22;2267;48.816;9.230;2022-12-07T19:11:28;6.80;99.90
4509;DHT22;2267;48.816;9.230;2022-12-07T19:14:32;6.80;99.90